Time;durP1;ratioP1;P1;durP2;ratioP2;P2;SDS_P1;SDS_P2;PMS_P1;PMS_P2;Temp;Humidity;BMP_temperature;BMP_pressure;BME280_temperature;BME280_humidity;BME280_pressure;Samples;Min_cycle;Max_cycle;Signal;HPM_P1;HPM_P2
2022/01/24 00:01:12;;;;;;;25.75;7.68;;;;;;;4.58;100.00;102281.88;5032601;28;20130;-81
2022/01/24 00:03:37;;;;;;;23.63;9.55;;;;;;;4.61;100.00;102291.47;5037511;28;20036;-80
2022/01/24 00:06:03;;;;;;;31.02;9.80;;;;;;;4.58;100.00;102284.53;5032289;28;20086;-85
2022/01/24 00:08:31;;;;;;;26.48;9.63;;;;;;;4.55;100.00;102275.88;5050291;28;20036;-81
2022/01/24 00:11:03;;;;;;;33.58;9.82;;;;;;;4.56;100.00;102280.25;5031052;28;20029;-84
2022/01/24 00:27:23;;;;;;;22.95;8.15;;;;;;;4.62;100.00;102286.03;5041304;28;20028;-82
2022/01/24 00:29:49;;;;;;;20.60;7.53;;;;;;;4.65;100.00;102287.63;5033371;28;20090;-82
2022/01/24 00:32:15;;;;;;;32.28;11.27;;;;;;;4.66;100.00;102301.81;5019972;28;20028;-82
2022/01/24 00:34:43;;;;;;;25.95;8.90;;;;;;;4.55;100.00;102300.72;5019270;28;20040;-81
2022/01/24 00:37:09;;;;;;;13.57;6.38;;;;;;;4.55;100.00;102291.84;5031096;28;20068;-84
2022/01/24 00:39:34;;;;;;;23.10;9.73;;;;;;;4.58;100.00;102289.00;5066790;28;20398;-81
2022/01/24 00:55:18;;;;;;;17.45;7.53;;;;;;;4.37;100.00;102289.44;5034947;28;20040;-80
2022/01/24 00:57:44;;;;;;;27.08;8.80;;;;;;;4.31;100.00;102287.16;5016938;28;20384;-84
2022/01/24 01:00:10;;;;;;;27.30;10.38;;;;;;;4.34;100.00;102302.06;5050793;28;20024;-84
2022/01/24 01:02:36;;;;;;;21.17;9.25;;;;;;;4.19;100.00;102290.59;5049755;28;20032;-81
2022/01/24 01:05:12;;;;;;;28.40;9.30;;;;;;;4.15;100.00;102300.59;5034977;28;20035;-81
2022/01/24 01:07:52;;;;;;;24.77;8.88;;;;;;;3.96;100.00;102276.06;5045785;28;20475;-83
2022/01/24 01:18:33;;;;;;;19.50;6.90;;;;;;;3.98;100.00;102274.16;5048500;28;20033;-80
2022/01/24 01:23:32;;;;;;;24.98;6.88;;;;;;;3.80;100.00;102278.81;5031846;28;20047;-81
2022/01/24 01:26:01;;;;;;;18.17;7.65;;;;;;;3.98;100.00;102284.81;5052154;28;20640;-84
2022/01/24 01:28:29;;;;;;;24.42;8.68;;;;;;;3.96;100.00;102282.22;5039727;28;20403;-81
2022/01/24 01:30:59;;;;;;;28.63;9.70;;;;;;;3.91;100.00;102281.66;5032756;28;20032;-83
2022/01/24 01:36:45;;;;;;;36.50;12.33;;;;;;;3.95;100.00;102285.00;4987403;28;1270737;-81
2022/01/24 01:52:34;;;;;;;19.35;8.02;;;;;;;3.87;100.00;102288.13;5028695;28;20056;-80
2022/01/24 01:57:44;;;;;;;22.23;8.57;;;;;;;3.85;100.00;102295.34;5037667;28;20501;-81
2022/01/24 02:00:10;;;;;;;31.88;9.82;;;;;;;3.90;100.00;102287.09;5032826;28;20060;-81
2022/01/24 02:02:36;;;;;;;34.15;9.48;;;;;;;3.77;100.00;102284.31;5030982;28;20037;-84
2022/01/24 02:05:01;;;;;;;24.55;9.73;;;;;;;3.61;100.00;102279.09;5034732;28;20043;-80
2022/01/24 02:07:27;;;;;;;26.70;8.82;;;;;;;3.47;100.00;102285.25;5051142;28;20040;-84
2022/01/24 02:09:53;;;;;;;29.92;9.18;;;;;;;3.33;100.00;102274.56;5043506;28;20355;-84
2022/01/24 02:12:23;;;;;;;26.15;8.57;;;;;;;3.27;100.00;102282.91;5048764;28;20048;-81
2022/01/24 02:14:55;;;;;;;26.52;8.18;;;;;;;3.29;100.00;102296.97;5016130;28;20040;-84
2022/01/24 02:17:31;;;;;;;23.05;9.65;;;;;;;2.94;100.00;102259.16;5050747;28;20039;-81
2022/01/24 02:20:13;;;;;;;24.00;9.50;;;;;;;2.96;100.00;102281.19;5041369;28;20067;-83
2022/01/24 02:25:16;;;;;;;12.77;5.68;;;;;;;2.96;100.00;102289.16;5046152;28;20028;-85
2022/01/24 02:27:46;;;;;;;17.00;7.15;;;;;;;3.06;100.00;102306.28;5026335;28;20046;-82
2022/01/24 02:33:00;;;;;;;39.33;10.73;;;;;;;3.16;100.00;102314.59;5000526;28;20116;-84
2022/01/24 02:35:26;;;;;;;24.25;8.48;;;;;;;3.21;100.00;102307.22;5029990;28;20041;-81
2022/01/24 02:37:52;;;;;;;29.70;10.30;;;;;;;3.37;100.00;102309.81;5046983;28;20032;-81
2022/01/24 02:40:20;;;;;;;26.60;10.20;;;;;;;3.25;100.00;102287.47;5035283;28;20040;-81
2022/01/24 02:48:27;;;;;;;17.85;6.68;;;;;;;3.06;100.00;102304.47;5047678;28;20395;-81
2022/01/24 02:53:27;;;;;;;18.63;7.75;;;;;;;3.06;100.00;102299.16;5029267;28;20040;-81
2022/01/24 02:55:53;;;;;;;23.13;8.30;;;;;;;3.07;100.00;102302.72;5016852;28;20459;-81
2022/01/24 02:58:20;;;;;;;25.67;9.30;;;;;;;2.94;100.00;102281.31;5046668;28;20119;-81
2022/01/24 03:00:51;;;;;;;30.05;11.02;;;;;;;2.99;100.00;102304.94;5030234;28;20067;-83
2022/01/24 03:03:16;;;;;;;32.95;12.30;;;;;;;2.80;100.00;102292.69;5045226;28;20041;-82
2022/01/24 03:05:45;;;;;;;17.33;8.40;;;;;;;2.58;100.00;102282.44;5035210;28;20140;-81
2022/01/24 03:08:12;;;;;;;24.33;10.63;;;;;;;2.55;100.00;102285.28;5029546;28;20535;-81
2022/01/24 03:10:44;;;;;;;25.38;9.82;;;;;;;2.37;100.00;102287.16;5026830;28;20040;-81
2022/01/24 03:15:43;;;;;;;28.02;9.73;;;;;;;2.49;100.00;102290.94;5048472;28;20127;-81
2022/01/24 03:18:10;;;;;;;29.75;8.02;;;;;;;2.40;100.00;102251.63;5052679;28;20108;-80
2022/01/24 03:20:36;;;;;;;27.67;7.72;;;;;;;2.53;100.00;102275.69;5033044;28;20036;-84
2022/01/24 03:23:02;;;;;;;13.75;7.05;;;;;;;2.62;100.00;102278.69;5025560;28;20086;-82
2022/01/24 03:25:28;;;;;;;23.48;7.55;;;;;;;2.70;100.00;102293.31;5044981;28;20021;-81
2022/01/24 03:27:54;;;;;;;27.50;8.50;;;;;;;2.63;100.00;102272.44;5030847;28;20035;-82
2022/01/24 03:30:20;;;;;;;25.80;8.32;;;;;;;2.73;100.00;102269.25;5033530;28;20029;-81
2022/01/24 03:32:46;;;;;;;25.45;8.82;;;;;;;3.05;100.00;102286.00;5028271;28;20034;-81
2022/01/24 03:35:11;;;;;;;21.63;8.23;;;;;;;3.25;100.00;102274.16;5047163;28;20025;-81
2022/01/24 03:37:37;;;;;;;19.77;6.05;;;;;;;3.25;100.00;102274.16;5042079;28;20438;-81
2022/01/24 03:40:04;;;;;;;20.83;6.63;;;;;;;3.28;100.00;102264.22;5043123;28;20085;-81
2022/01/24 03:42:30;;;;;;;39.55;8.45;;;;;;;3.36;100.00;102271.75;5049789;28;20075;-81
2022/01/24 03:45:00;;;;;;;32.30;7.47;;;;;;;3.26;100.00;102223.59;5026970;28;20033;-81
2022/01/24 03:47:41;;;;;;;26.70;8.57;;;;;;;3.30;100.00;102264.97;5049445;28;20033;-81
2022/01/24 03:50:11;;;;;;;19.50;4.90;;;;;;;3.30;100.00;102267.63;5018627;28;20057;-84
2022/01/24 03:52:37;;;;;;;23.33;7.45;;;;;;;3.46;100.00;102262.25;5030389;28;20120;-83
2022/01/24 03:55:04;;;;;;;9.77;4.78;;;;;;;3.50;100.00;102268.25;5008356;28;20549;-81
2022/01/24 03:57:29;;;;;;;18.80;6.93;;;;;;;3.53;100.00;102265.41;5047520;28;20147;-84
2022/01/24 03:59:55;;;;;;;26.33;8.93;;;;;;;3.52;100.00;102253.06;5046625;28;20031;-85
2022/01/24 04:02:25;;;;;;;25.20;6.68;;;;;;;3.53;100.00;102234.34;5048402;28;20020;-81
2022/01/24 04:04:51;;;;;;;30.08;7.47;;;;;;;3.79;100.00;102270.94;5016936;28;20486;-81
2022/01/24 04:07:17;;;;;;;26.25;8.00;;;;;;;3.72;100.00;102251.81;5045774;28;20509;-82
2022/01/24 04:09:43;;;;;;;23.50;5.65;;;;;;;3.75;100.00;102251.63;5013502;28;20550;-84
2022/01/24 04:12:10;;;;;;;9.77;5.13;;;;;;;3.87;100.00;102258.00;5029969;28;20482;-82
2022/01/24 04:15:08;;;;;;;28.48;9.38;;;;;;;3.85;100.00;102263.41;5048898;28;20544;-82
2022/01/24 04:17:36;;;;;;;19.48;7.13;;;;;;;3.67;100.00;102244.13;5032224;28;20106;-81
2022/01/24 04:22:50;;;;;;;22.77;6.28;;;;;;;3.77;100.00;102254.22;5049816;28;20036;-84
2022/01/24 04:25:17;;;;;;;22.25;8.68;;;;;;;3.70;100.00;102254.56;5024969;28;20044;-81
2022/01/24 04:27:42;;;;;;;29.92;9.45;;;;;;;3.65;100.00;102235.41;5037170;28;20115;-80
2022/01/24 04:30:09;;;;;;;28.50;7.97;;;;;;;3.79;100.00;102250.50;5039816;28;20169;-82
2022/01/24 04:32:34;;;;;;;30.52;8.63;;;;;;;3.74;100.00;102253.44;5018287;28;20197;-83
2022/01/24 04:35:00;;;;;;;26.83;8.93;;;;;;;3.86;100.00;102262.47;5014109;28;20178;-82
2022/01/24 04:37:26;;;;;;;28.83;9.93;;;;;;;3.80;100.00;102260.19;5018106;28;20036;-81
2022/01/24 04:39:51;;;;;;;24.02;8.27;;;;;;;3.28;100.00;102204.84;5033001;28;20127;-84
2022/01/24 04:42:26;;;;;;;23.95;7.97;;;;;;;3.49;100.00;102253.22;5018885;28;20036;-80
2022/01/24 04:47:36;;;;;;;17.55;7.75;;;;;;;3.50;100.00;102261.13;5052904;28;20044;-82
2022/01/24 04:50:42;;;;;;;26.48;8.18;;;;;;;3.53;100.00;102252.09;5021472;28;20025;-81
2022/01/24 04:55:14;;;;;;;34.28;9.70;;;;;;;3.41;100.00;102261.66;5033302;28;20051;-81
2022/01/24 04:57:39;;;;;;;24.38;8.88;;;;;;;3.28;100.00;102252.72;5017471;28;20620;-83
2022/01/24 05:00:08;;;;;;;21.45;7.05;;;;;;;3.25;100.00;102264.38;5021117;28;20127;-83
2022/01/24 05:02:34;;;;;;;23.42;8.10;;;;;;;3.05;100.00;102220.41;5037200;28;20090;-81
2022/01/24 05:05:00;;;;;;;25.75;9.10;;;;;;;3.26;100.00;102265.25;5037614;28;20684;-80
2022/01/24 05:07:26;;;;;;;24.92;8.82;;;;;;;3.25;100.00;102276.81;5035041;28;20041;-80
2022/01/24 05:12:32;;;;;;;24.20;7.32;;;;;;;3.02;100.00;102241.84;5032353;28;20033;-81
2022/01/24 05:23:34;;;;;;;21.55;7.50;;;;;;;3.21;100.00;102267.34;5037933;28;20123;-81
2022/01/24 05:26:02;;;;;;;28.05;7.82;;;;;;;3.12;100.00;102271.38;5034612;28;20466;-81
2022/01/24 05:28:28;;;;;;;24.80;9.07;;;;;;;3.14;100.00;102265.97;5020516;28;20032;-81
2022/01/24 05:30:54;;;;;;;17.02;6.30;;;;;;;3.14;100.00;102260.66;5031956;28;20531;-81
2022/01/24 05:33:20;;;;;;;31.48;9.88;;;;;;;3.18;100.00;102257.75;5034802;28;20044;-81
2022/01/24 05:35:46;;;;;;;29.63;8.40;;;;;;;3.18;100.00;102273.69;5011967;28;20041;-80
2022/01/24 05:38:11;;;;;;;32.13;9.80;;;;;;;2.95;100.00;102258.25;5012503;28;20040;-81
2022/01/24 05:40:38;;;;;;;28.88;9.57;;;;;;;3.00;100.00;102272.97;5051736;28;20032;-81
2022/01/24 05:43:04;;;;;;;20.60;8.35;;;;;;;3.13;100.00;102306.81;5030496;28;20036;-81
2022/01/24 05:45:29;;;;;;;20.98;8.65;;;;;;;2.78;100.00;102276.00;5026370;28;20055;-82
2022/01/24 05:47:55;;;;;;;15.23;7.13;;;;;;;2.76;100.00;102307.13;5048198;28;20240;-82
2022/01/24 05:50:21;;;;;;;19.27;7.38;;;;;;;2.72;100.00;102312.69;5047203;28;20116;-81
2022/01/24 05:52:46;;;;;;;17.67;7.07;;;;;;;2.77;100.00;102321.25;5015360;28;20040;-80
2022/01/24 05:55:12;;;;;;;24.77;8.40;;;;;;;2.60;100.00;102307.13;5049609;28;20698;-83
2022/01/24 05:57:38;;;;;;;23.75;7.13;;;;;;;2.52;100.00;102324.44;5049952;28;20036;-82
2022/01/24 06:00:09;;;;;;;25.17;8.23;;;;;;;2.39;100.00;102338.38;5028256;28;20539;-81
2022/01/24 06:02:37;;;;;;;30.55;8.48;;;;;;;2.17;100.00;102340.47;5013247;28;20043;-80
2022/01/24 06:05:03;;;;;;;23.88;9.02;;;;;;;1.91;100.00;102341.88;5033370;28;20431;-80
2022/01/24 06:07:29;;;;;;;21.63;7.88;;;;;;;1.76;100.00;102328.47;5024206;28;20182;-83
2022/01/24 06:09:57;;;;;;;25.25;7.50;;;;;;;1.63;100.00;102335.34;5035041;28;20040;-81
2022/01/24 06:12:26;;;;;;;21.95;7.43;;;;;;;1.47;100.00;102331.78;5051017;28;20024;-81
2022/01/24 06:14:52;;;;;;;25.92;8.40;;;;;;;1.44;100.00;102335.44;5033931;28;20029;-83
2022/01/24 06:17:18;;;;;;;22.33;8.10;;;;;;;1.44;100.00;102332.78;5034535;28;20048;-80
2022/01/24 06:19:45;;;;;;;18.65;6.47;;;;;;;1.67;100.00;102328.97;5017422;28;20036;-80
2022/01/24 06:22:11;;;;;;;37.88;10.30;;;;;;;1.87;100.00;102343.81;5026272;28;20178;-81
2022/01/24 06:24:36;;;;;;;54.42;14.00;;;;;;;1.96;100.00;102327.44;5018197;28;20123;-80
2022/01/24 06:27:02;;;;;;;28.63;10.25;;;;;;;1.86;100.00;102317.38;5031116;28;20033;-81
2022/01/24 06:29:28;;;;;;;34.80;11.32;;;;;;;2.03;100.00;102325.28;5050115;28;20040;-80
2022/01/24 06:31:56;;;;;;;22.23;8.02;;;;;;;1.94;100.00;102309.88;5016243;28;20045;-81
2022/01/24 06:34:22;;;;;;;30.65;8.50;;;;;;;1.97;100.00;102325.63;5036443;28;20051;-82
2022/01/24 06:36:51;;;;;;;26.55;7.05;;;;;;;1.93;100.00;102356.78;5049334;28;20536;-81
2022/01/24 06:39:17;;;;;;;27.35;8.15;;;;;;;1.69;100.00;102355.38;5049646;28;20040;-80
2022/01/24 06:41:50;;;;;;;31.27;8.85;;;;;;;1.40;100.00;102351.56;5035756;28;20030;-81
2022/01/24 06:44:16;;;;;;;23.98;8.40;;;;;;;1.15;100.00;102358.09;5017916;28;20437;-82
2022/01/24 06:46:44;;;;;;;27.55;8.43;;;;;;;0.89;100.00;102351.41;5048000;28;20036;-81
2022/01/24 06:49:10;;;;;;;12.00;5.45;;;;;;;0.77;100.00;102358.16;5029176;28;20461;-81
2022/01/24 06:51:36;;;;;;;28.00;7.95;;;;;;;0.78;100.00;102359.88;5010976;28;20060;-80
2022/01/24 06:54:02;;;;;;;1.83;1.42;;;;;;;0.75;100.00;102367.13;5010292;28;20047;-83
2022/01/24 06:56:28;;;;;;;14.70;5.40;;;;;;;0.63;100.00;102352.66;5028337;28;20438;-81
2022/01/24 06:58:53;;;;;;;19.33;6.40;;;;;;;0.84;100.00;102346.31;5047771;28;20024;-82
2022/01/24 07:01:19;;;;;;;13.00;4.85;;;;;;;1.12;100.00;102355.59;5027583;28;20094;-83
2022/01/24 07:03:45;;;;;;;19.45;7.35;;;;;;;1.17;100.00;102358.88;5031962;28;20071;-80
2022/01/24 07:06:10;;;;;;;32.97;7.80;;;;;;;1.23;100.00;102361.22;5030458;28;20032;-80
2022/01/24 07:08:36;;;;;;;23.92;7.70;;;;;;;1.24;100.00;102370.88;5032696;28;20529;-79
2022/01/24 07:11:02;;;;;;;19.30;6.93;;;;;;;1.06;100.00;102350.63;5031093;28;20543;-81
2022/01/24 07:13:27;;;;;;;19.23;6.57;;;;;;;0.86;100.00;102348.91;5030932;28;20129;-81
2022/01/24 07:15:59;;;;;;;22.70;7.13;;;;;;;0.73;100.00;102353.09;5015950;28;20474;-79
2022/01/24 07:20:57;;;;;;;10.20;4.53;;;;;;;0.63;100.00;102350.84;5030129;28;20041;-81
2022/01/24 07:23:22;;;;;;;15.63;6.15;;;;;;;0.68;100.00;102369.19;5029473;28;20135;-79
2022/01/24 07:25:48;;;;;;;22.25;6.40;;;;;;;0.68;100.00;102355.94;5063256;28;20116;-82
2022/01/24 07:28:15;;;;;;;21.67;7.93;;;;;;;0.49;100.00;102320.69;5032333;28;20459;-79
2022/01/24 07:30:40;;;;;;;24.70;7.43;;;;;;;0.73;100.00;102367.19;5031249;28;20115;-80
2022/01/24 07:33:06;;;;;;;24.33;7.63;;;;;;;0.56;100.00;102348.59;5030640;28;20274;-81
2022/01/24 07:35:32;;;;;;;21.25;7.07;;;;;;;0.46;100.00;102357.91;5045820;28;20033;-81
2022/01/24 07:37:58;;;;;;;19.77;6.20;;;;;;;0.51;100.00;102377.06;5046888;28;20516;-81
2022/01/24 07:40:27;;;;;;;19.40;6.95;;;;;;;0.43;100.00;102380.91;5032594;28;20028;-81
2022/01/24 07:42:56;;;;;;;27.58;6.78;;;;;;;0.35;100.00;102395.44;5010827;28;20043;-79
2022/01/24 07:45:29;;;;;;;21.30;6.47;;;;;;;0.14;100.00;102389.31;5046552;28;20040;-80
2022/01/24 07:47:55;;;;;;;25.20;7.47;;;;;;;0.17;100.00;102399.75;5032505;28;20391;-83
2022/01/24 07:50:25;;;;;;;5.07;2.22;;;;;;;0.13;100.00;102392.88;5038617;28;20040;-82
2022/01/24 07:52:55;;;;;;;17.95;6.18;;;;;;;0.06;100.00;102391.44;5038738;28;20039;-80
2022/01/24 07:55:22;;;;;;;12.45;6.80;;;;;;;-0.02;100.00;102384.69;5038295;28;20182;-79
2022/01/24 07:57:48;;;;;;;22.58;6.20;;;;;;;0.01;100.00;102398.72;5009830;28;20131;-80
2022/01/24 08:00:18;;;;;;;22.58;5.38;;;;;;;-0.05;100.00;102394.56;5031777;28;20068;-81
2022/01/24 08:02:44;;;;;;;23.75;7.07;;;;;;;-0.09;100.00;102398.25;5023769;28;20401;-79
2022/01/24 08:05:12;;;;;;;24.38;7.20;;;;;;;-0.07;100.00;102397.25;5031805;28;20036;-80
2022/01/24 08:07:41;;;;;;;18.30;6.70;;;;;;;-0.04;100.00;102397.13;5033993;28;20029;-80
2022/01/24 08:10:08;;;;;;;32.05;8.57;;;;;;;0.06;100.00;102394.94;5050323;28;20410;-79
2022/01/24 08:12:35;;;;;;;9.85;3.20;;;;;;;0.11;100.00;102389.47;5018982;28;20071;-79
2022/01/24 08:15:08;;;;;;;17.83;6.57;;;;;;;0.33;100.00;102400.78;5055544;28;20024;-79
2022/01/24 08:17:36;;;;;;;28.45;9.07;;;;;;;0.29;100.00;102404.50;5025670;28;20037;-79
2022/01/24 08:20:09;;;;;;;28.10;8.95;;;;;;;0.32;100.00;102414.06;5049203;28;20040;-80
2022/01/24 08:22:35;;;;;;;22.73;8.10;;;;;;;0.09;100.00;102397.44;5047070;28;20061;-79
2022/01/24 08:25:04;;;;;;;18.48;7.07;;;;;;;0.21;100.00;102418.09;5051490;28;20112;-80
2022/01/24 08:27:34;;;;;;;42.15;9.52;;;;;;;0.34;100.00;102410.44;5066344;28;20186;-80
2022/01/24 08:30:00;;;;;;;21.55;7.35;;;;;;;0.51;100.00;102417.63;5047494;28;20028;-79
2022/01/24 08:32:26;;;;;;;20.73;7.70;;;;;;;0.59;100.00;102390.81;5027747;28;20551;-83
2022/01/24 08:34:52;;;;;;;16.30;6.75;;;;;;;1.09;100.00;102424.63;5034660;28;20031;-81
2022/01/24 08:37:17;;;;;;;20.65;6.43;;;;;;;1.22;100.00;102406.34;5022032;28;20044;-83
2022/01/24 08:39:44;;;;;;;36.47;5.95;;;;;;;1.36;100.00;102432.19;5029594;28;20629;-81
2022/01/24 08:47:29;;;;;;;43.17;10.02;;;;;;;1.41;100.00;102416.91;5039094;28;20036;-82
2022/01/24 08:49:58;;;;;;;37.03;10.05;;;;;;;1.64;100.00;102439.59;5033693;28;20447;-81
2022/01/24 08:52:25;;;;;;;20.88;7.10;;;;;;;1.71;100.00;102428.63;5028947;28;20386;-82
2022/01/24 08:54:52;;;;;;;36.10;9.95;;;;;;;1.76;100.00;102421.28;5035153;28;20036;-82
2022/01/24 08:57:24;;;;;;;33.72;10.32;;;;;;;2.00;100.00;102450.16;5039720;28;20039;-83
2022/01/24 08:59:53;;;;;;;39.42;9.40;;;;;;;2.12;100.00;102444.22;5039082;28;20047;-81
2022/01/24 09:02:20;;;;;;;26.88;10.27;;;;;;;2.24;100.00;102444.50;5023064;28;20052;-81
2022/01/24 09:04:46;;;;;;;32.05;10.60;;;;;;;2.10;100.00;102419.56;5044632;28;20550;-81
2022/01/24 09:07:13;;;;;;;28.73;12.27;;;;;;;2.35;100.00;102452.75;5046531;28;20115;-81
2022/01/24 09:09:39;;;;;;;34.83;10.23;;;;;;;2.27;100.00;102437.25;5040986;28;20487;-81
2022/01/24 09:12:06;;;;;;;26.08;9.30;;;;;;;2.34;100.00;102449.25;5050899;28;20040;-81
2022/01/24 09:14:32;;;;;;;39.08;8.75;;;;;;;2.30;100.00;102458.34;5053598;28;20043;-84
2022/01/24 09:16:58;;;;;;;21.77;6.50;;;;;;;2.21;100.00;102445.53;5020436;28;20044;-81
2022/01/24 09:19:23;;;;;;;26.27;8.07;;;;;;;2.26;100.00;102466.53;5032832;28;20036;-81
2022/01/24 09:21:50;;;;;;;26.88;8.23;;;;;;;2.23;100.00;102464.91;5035731;28;20063;-81
2022/01/24 09:24:19;;;;;;;19.25;7.50;;;;;;;2.09;100.00;102455.00;5034851;28;20034;-81
2022/01/24 09:26:45;;;;;;;20.42;6.85;;;;;;;2.16;100.00;102458.19;5019695;28;20051;-82
2022/01/24 09:29:12;;;;;;;87.68;27.30;;;;;;;2.47;100.00;102472.50;5016003;28;20033;-82
2022/01/24 09:31:41;;;;;;;76.18;27.88;;;;;;;2.69;100.00;102446.50;5032368;28;20135;-81
2022/01/24 09:34:07;;;;;;;58.67;23.13;;;;;;;3.40;100.00;102458.53;5067825;28;20066;-81
2022/01/24 09:36:35;;;;;;;89.75;30.75;;;;;;;4.13;100.00;102470.19;5021351;28;20469;-80
2022/01/24 09:39:01;;;;;;;60.88;22.80;;;;;;;4.93;100.00;102461.78;5037115;28;20028;-82
2022/01/24 09:41:26;;;;;;;47.88;15.13;;;;;;;5.48;100.00;102466.22;5031560;28;20090;-83
2022/01/24 09:43:52;;;;;;;51.17;16.73;;;;;;;5.93;100.00;102456.09;5046689;28;20443;-84
2022/01/24 09:46:18;;;;;;;61.35;18.83;;;;;;;6.88;100.00;102460.19;5051188;28;20462;-81
2022/01/24 09:48:43;;;;;;;48.85;16.45;;;;;;;7.30;100.00;102462.50;5018495;28;20382;-80
2022/01/24 09:51:11;;;;;;;41.22;16.77;;;;;;;7.80;100.00;102457.88;5051451;28;20082;-80
2022/01/24 09:53:38;;;;;;;41.05;13.18;;;;;;;8.09;100.00;102477.09;5036313;28;20048;-80
2022/01/24 09:56:07;;;;;;;41.45;13.82;;;;;;;7.90;100.00;102457.06;5049324;28;20036;-81
2022/01/24 09:58:34;;;;;;;40.20;13.63;;;;;;;7.83;100.00;102473.72;5037413;28;20032;-80
2022/01/24 10:01:01;;;;;;;42.63;12.38;;;;;;;7.22;100.00;102452.38;5049922;28;20086;-83
2022/01/24 10:03:27;;;;;;;37.80;14.27;;;;;;;6.87;100.00;102469.16;5040158;28;20103;-79
2022/01/24 10:05:55;;;;;;;75.63;20.08;;;;;;;7.52;100.00;102472.50;5046880;28;20059;-81
2022/01/24 10:08:23;;;;;;;43.85;14.55;;;;;;;8.89;99.56;102473.56;5036305;28;20097;-80
2022/01/24 10:10:51;;;;;;;46.97;16.73;;;;;;;9.52;95.34;102465.78;5054274;28;20032;-80
2022/01/24 10:16:46;;;;;;;37.03;12.18;;;;;;;10.09;91.23;102470.78;5046628;28;20418;-80
2022/01/24 10:19:17;;;;;;;38.15;12.20;;;;;;;10.74;88.30;102458.00;5033820;28;20620;-80
2022/01/24 10:21:44;;;;;;;47.20;17.08;;;;;;;11.42;85.23;102468.09;5026520;28;20032;-81
2022/01/24 10:24:17;;;;;;;55.10;20.52;;;;;;;12.01;82.97;102458.22;5052887;28;20098;-81
2022/01/24 10:26:45;;;;;;;45.70;15.40;;;;;;;12.53;80.49;102466.78;5054408;28;20441;-80
2022/01/24 10:29:12;;;;;;;48.63;18.95;;;;;;;12.88;77.41;102466.06;5071653;28;20028;-81
2022/01/24 10:31:46;;;;;;;39.42;14.43;;;;;;;13.04;75.96;102468.09;5047864;28;20032;-84
2022/01/24 10:34:18;;;;;;;32.75;12.27;;;;;;;13.03;75.28;102469.13;5017633;28;20201;-80
2022/01/24 10:36:51;;;;;;;56.17;19.05;;;;;;;13.06;75.44;102462.56;5050509;28;20020;-81
2022/01/24 10:39:27;;;;;;;43.22;18.33;;;;;;;13.55;72.91;102466.69;5051645;28;20029;-80
2022/01/24 10:44:59;;;;;;;32.45;10.20;;;;;;;13.86;69.18;102466.28;5009543;28;20034;-80
2022/01/24 10:47:30;;;;;;;32.08;12.52;;;;;;;13.95;70.06;102478.88;5030852;28;20044;-88
2022/01/24 10:49:59;;;;;;;36.17;14.40;;;;;;;14.35;68.44;102485.63;5016272;28;20040;-78
2022/01/24 10:52:28;;;;;;;32.40;10.40;;;;;;;14.39;67.00;102483.44;5043357;28;20043;-83
2022/01/24 10:55:11;;;;;;;30.48;13.43;;;;;;;14.15;67.68;102484.94;5050294;28;20489;-77
2022/01/24 10:57:39;;;;;;;29.50;10.45;;;;;;;13.98;67.75;102493.97;5025683;28;20451;-84
2022/01/24 11:00:32;;;;;;;37.13;12.70;;;;;;;14.20;67.16;102484.50;5057813;28;20398;-81
2022/01/24 11:03:00;;;;;;;;;;;;;;;14.32;66.76;102493.22;5046213;28;20052;-79
2022/01/24 11:05:38;;;;;;;19.88;7.50;;;;;;;14.37;65.35;102480.91;5048808;28;20532;-76
2022/01/24 11:08:06;;;;;;;29.45;9.65;;;;;;;13.91;67.17;102490.16;5030881;28;20033;-82
2022/01/24 11:10:42;;;;;;;30.67;12.55;;;;;;;13.79;68.31;102481.47;5039090;28;20093;-81
2022/01/24 11:13:08;;;;;;;28.70;9.98;;;;;;;13.60;68.33;102488.72;5021880;28;20036;-83
2022/01/24 11:15:35;;;;;;;12.75;7.68;;;;;;;13.45;68.10;102486.69;5041759;28;20044;-82
2022/01/24 11:18:02;;;;;;;36.63;11.50;;;;;;;13.64;67.78;102484.69;5024309;28;20029;-82
2022/01/24 11:20:33;;;;;;;34.33;12.00;;;;;;;14.01;66.85;102494.47;5018655;28;20083;-81
2022/01/24 11:23:02;;;;;;;39.35;12.65;;;;;;;14.19;65.49;102494.47;5046745;28;20028;-85
2022/01/24 11:25:34;;;;;;;30.95;10.10;;;;;;;13.51;67.04;102489.63;5030680;28;20041;-79
2022/01/24 11:28:00;;;;;;;32.03;10.40;;;;;;;13.19;68.93;102490.91;5055087;28;20029;-86
2022/01/24 11:30:44;;;;;;;34.20;12.52;;;;;;;12.87;69.38;102493.22;5050186;28;20036;-80
2022/01/24 11:33:12;;;;;;;36.83;11.93;;;;;;;13.14;68.42;102482.41;5029413;28;20129;-78
2022/01/24 11:35:41;;;;;;;67.03;17.45;;;;;;;12.90;69.40;102485.66;5020349;28;20032;-80
2022/01/24 11:38:58;;;;;;;69.05;19.77;;;;;;;13.13;69.24;102502.34;5031961;28;20507;-77
2022/01/24 11:41:26;;;;;;;51.15;15.15;;;;;;;13.42;68.19;102501.34;4988401;28;20055;-78
2022/01/24 11:43:56;;;;;;;45.22;13.23;;;;;;;13.68;68.84;102490.66;5047612;28;20086;-82
2022/01/24 11:46:31;;;;;;;39.38;12.43;;;;;;;13.25;68.38;102496.72;5044002;28;20040;-77
2022/01/24 11:49:05;;;;;;;41.38;12.95;;;;;;;13.10;69.09;102483.72;5044008;28;20033;-79
2022/01/24 11:51:33;;;;;;;44.55;14.57;;;;;;;13.60;67.84;102480.59;5036796;28;20033;-78
2022/01/24 11:53:59;;;;;;;44.80;10.73;;;;;;;14.05;64.81;102479.66;5044554;28;20040;-79
2022/01/24 11:56:27;;;;;;;33.90;13.18;;;;;;;13.63;65.98;102476.75;5047162;28;20028;-80
2022/01/24 11:59:20;;;;;;;48.17;13.07;;;;;;;13.61;67.04;102476.88;5054582;28;20043;-79
2022/01/24 12:01:52;;;;;;;59.13;16.80;;;;;;;13.57;67.01;102466.53;5033225;28;20098;-86
2022/01/24 12:04:59;;;;;;;38.47;12.43;;;;;;;12.86;68.66;102484.28;5050633;28;20051;-78
2022/01/24 12:07:29;;;;;;;33.50;11.32;;;;;;;14.07;65.39;102485.72;5031500;28;20183;-82
2022/01/24 12:10:24;;;;;;;28.65;10.43;;;;;;;14.62;63.62;102487.34;5053503;28;20042;-80
2022/01/24 12:13:00;;;;;;;25.38;8.82;;;;;;;13.10;66.75;102488.28;5047450;28;20386;-78
2022/01/24 12:15:41;;;;;;;44.13;12.98;;;;;;;11.74;71.28;102486.72;5046016;28;20197;-79
2022/01/24 12:18:26;;;;;;;35.45;12.25;;;;;;;11.56;74.35;102489.25;5037920;28;20097;-86
2022/01/24 12:21:25;;;;;;;30.13;10.50;;;;;;;11.14;74.73;102483.19;5030796;28;20063;-81
2022/01/24 12:24:16;;;;;;;26.38;9.02;;;;;;;11.21;75.10;102481.66;5039651;28;20549;-78
2022/01/24 12:26:43;;;;;;;28.17;10.45;;;;;;;11.69;72.89;102467.41;5034530;28;20037;-79
2022/01/24 12:29:22;;;;;;;25.63;10.80;;;;;;;12.00;71.04;102475.41;5034641;28;20555;-79
2022/01/24 12:31:51;;;;;;;39.47;12.50;;;;;;;12.15;70.11;102467.72;5036094;28;20043;-78
2022/01/24 12:34:28;;;;;;;27.33;9.70;;;;;;;12.54;68.57;102471.16;5037871;28;20097;-79
2022/01/24 12:37:00;;;;;;;13.73;7.70;;;;;;;13.32;66.63;102473.53;5047091;28;20029;-79
2022/01/24 12:39:36;;;;;;;25.70;8.57;;;;;;;13.66;65.44;102476.44;5039465;28;20028;-86
2022/01/24 12:42:13;;;;;;;27.52;12.60;;;;;;;13.57;65.73;102461.97;5051601;28;20515;-78
2022/01/24 12:47:12;;;;;;;32.00;10.32;;;;;;;11.78;71.49;102482.75;5043460;28;20421;-78
2022/01/24 12:49:39;;;;;;;15.02;6.95;;;;;;;11.13;74.02;102473.44;5020099;28;20482;-86
2022/01/24 12:52:08;;;;;;;31.60;8.77;;;;;;;11.46;74.00;102474.94;5019275;28;20044;-78
2022/01/24 12:54:36;;;;;;;24.98;9.18;;;;;;;11.07;75.61;102474.00;5019826;28;20644;-80
2022/01/24 12:57:09;;;;;;;34.88;11.32;;;;;;;10.60;78.06;102476.34;5013150;28;20036;-78
2022/01/24 12:59:36;;;;;;;31.52;10.80;;;;;;;10.64;75.86;102477.75;5019942;28;20605;-79
2022/01/24 13:02:04;;;;;;;26.95;10.95;;;;;;;11.13;73.81;102458.13;5035913;28;20044;-78
2022/01/24 13:04:40;;;;;;;27.35;11.02;;;;;;;11.17;74.86;102461.41;5063711;28;20049;-78
2022/01/24 13:07:07;;;;;;;27.95;11.30;;;;;;;12.41;70.31;102457.13;5030863;28;20029;-79
2022/01/24 13:09:35;;;;;;;17.13;8.90;;;;;;;12.98;66.27;102455.22;5044913;28;20406;-79
2022/01/24 13:12:08;;;;;;;21.52;9.65;;;;;;;14.86;61.21;102451.41;5026967;28;20497;-88